sensor_id;sensor_type;location;lat;lon;timestamp;P1;durP1;ratioP1;P2;durP2;ratioP2
7703;SDS011;3894;49.700;10.770;2023-09-30T00:00:14;13.05;;;2.85;;
7703;SDS011;3894;49.700;10.770;2023-09-30T00:02:40;11.77;;;2.97;;
7703;SDS011;3894;49.700;10.770;2023-09-30T00:05:06;11.68;;;2.92;;
7703;SDS011;3894;49.700;10.770;2023-09-30T00:07:32;12.35;;;2.78;;
7703;SDS011;3894;49.700;10.770;2023-09-30T00:09:58;9.20;;;2.63;;
7703;SDS011;3894;49.700;10.770;2023-09-30T00:12:24;12.63;;;3.25;;
7703;SDS011;3894;49.700;10.770;2023-09-30T00:14:49;11.30;;;2.38;;
7703;SDS011;3894;49.700;10.770;2023-09-30T00:17:15;13.32;;;3.13;;
7703;SDS011;3894;49.700;10.770;2023-09-30T00:19:40;10.93;;;2.38;;
7703;SDS011;3894;49.700;10.770;2023-09-30T00:22:06;10.15;;;2.92;;
7703;SDS011;3894;49.700;10.770;2023-09-30T00:24:32;9.32;;;2.60;;
7703;SDS011;3894;49.700;10.770;2023-09-30T00:26:59;11.18;;;2.63;;
7703;SDS011;3894;49.700;10.770;2023-09-30T00:29:24;11.57;;;3.40;;
7703;SDS011;3894;49.700;10.770;2023-09-30T00:31:51;11.38;;;2.67;;
7703;SDS011;3894;49.700;10.770;2023-09-30T00:34:17;8.88;;;2.03;;
7703;SDS011;3894;49.700;10.770;2023-09-30T00:36:42;11.43;;;2.63;;
7703;SDS011;3894;49.700;10.770;2023-09-30T00:39:08;12.88;;;3.17;;
7703;SDS011;3894;49.700;10.770;2023-09-30T00:41:34;9.23;;;2.30;;
7703;SDS011;3894;49.700;10.770;2023-09-30T00:44:00;10.45;;;2.75;;
7703;SDS011;3894;49.700;10.770;2023-09-30T00:46:28;8.88;;;1.98;;
7703;SDS011;3894;49.700;10.770;2023-09-30T00:48:56;12.50;;;2.90;;
7703;SDS011;3894;49.700;10.770;2023-09-30T00:51:23;13.35;;;3.28;;
7703;SDS011;3894;49.700;10.770;2023-09-30T00:53:50;9.40;;;2.05;;
7703;SDS011;3894;49.700;10.770;2023-09-30T00:56:17;11.00;;;2.03;;
7703;SDS011;3894;49.700;10.770;2023-09-30T00:58:45;9.38;;;2.90;;
7703;SDS011;3894;49.700;10.770;2023-09-30T01:01:12;7.75;;;1.70;;
7703;SDS011;3894;49.700;10.770;2023-09-30T01:03:38;8.23;;;2.15;;
7703;SDS011;3894;49.700;10.770;2023-09-30T01:06:04;6.75;;;1.90;;
7703;SDS011;3894;49.700;10.770;2023-09-30T01:08:30;9.88;;;2.17;;
7703;SDS011;3894;49.700;10.770;2023-09-30T01:10:57;11.55;;;2.40;;
7703;SDS011;3894;49.700;10.770;2023-09-30T01:13:23;9.55;;;1.70;;
7703;SDS011;3894;49.700;10.770;2023-09-30T01:16:03;9.35;;;2.47;;
7703;SDS011;3894;49.700;10.770;2023-09-30T01:18:29;7.13;;;1.42;;
7703;SDS011;3894;49.700;10.770;2023-09-30T01:20:55;6.63;;;1.73;;
7703;SDS011;3894;49.700;10.770;2023-09-30T01:23:21;6.93;;;1.38;;
7703;SDS011;3894;49.700;10.770;2023-09-30T01:25:47;8.95;;;1.33;;
7703;SDS011;3894;49.700;10.770;2023-09-30T01:28:12;6.88;;;1.60;;
7703;SDS011;3894;49.700;10.770;2023-09-30T01:30:39;5.30;;;1.23;;
7703;SDS011;3894;49.700;10.770;2023-09-30T01:35:32;6.15;;;1.35;;
7703;SDS011;3894;49.700;10.770;2023-09-30T01:37:58;7.47;;;1.75;;
7703;SDS011;3894;49.700;10.770;2023-09-30T01:40:24;6.32;;;1.40;;
7703;SDS011;3894;49.700;10.770;2023-09-30T01:42:49;6.05;;;1.20;;
7703;SDS011;3894;49.700;10.770;2023-09-30T01:45:15;8.02;;;1.27;;
7703;SDS011;3894;49.700;10.770;2023-09-30T01:47:40;7.80;;;1.55;;
7703;SDS011;3894;49.700;10.770;2023-09-30T01:50:06;9.57;;;2.30;;
7703;SDS011;3894;49.700;10.770;2023-09-30T01:52:32;6.22;;;1.42;;
7703;SDS011;3894;49.700;10.770;2023-09-30T01:54:57;5.28;;;1.40;;
7703;SDS011;3894;49.700;10.770;2023-09-30T01:57:23;5.25;;;1.77;;
7703;SDS011;3894;49.700;10.770;2023-09-30T01:59:48;6.00;;;1.30;;
7703;SDS011;3894;49.700;10.770;2023-09-30T02:02:14;6.40;;;1.38;;
7703;SDS011;3894;49.700;10.770;2023-09-30T02:04:40;6.63;;;1.70;;
7703;SDS011;3894;49.700;10.770;2023-09-30T02:07:06;6.53;;;1.30;;
7703;SDS011;3894;49.700;10.770;2023-09-30T02:09:31;6.10;;;1.77;;
7703;SDS011;3894;49.700;10.770;2023-09-30T02:11:57;6.43;;;1.38;;
7703;SDS011;3894;49.700;10.770;2023-09-30T02:14:23;8.07;;;1.60;;
7703;SDS011;3894;49.700;10.770;2023-09-30T02:16:49;6.25;;;2.20;;
7703;SDS011;3894;49.700;10.770;2023-09-30T02:19:15;7.45;;;1.30;;
7703;SDS011;3894;49.700;10.770;2023-09-30T02:21:40;6.95;;;1.52;;
7703;SDS011;3894;49.700;10.770;2023-09-30T02:24:06;7.78;;;1.60;;
7703;SDS011;3894;49.700;10.770;2023-09-30T02:26:32;7.60;;;0.93;;
7703;SDS011;3894;49.700;10.770;2023-09-30T02:28:58;6.10;;;1.58;;
7703;SDS011;3894;49.700;10.770;2023-09-30T02:31:23;8.63;;;1.25;;
7703;SDS011;3894;49.700;10.770;2023-09-30T02:33:49;7.18;;;2.13;;
7703;SDS011;3894;49.700;10.770;2023-09-30T02:36:15;5.13;;;1.23;;
7703;SDS011;3894;49.700;10.770;2023-09-30T02:38:41;7.45;;;1.35;;
7703;SDS011;3894;49.700;10.770;2023-09-30T02:41:07;6.30;;;1.08;;
7703;SDS011;3894;49.700;10.770;2023-09-30T02:43:32;5.53;;;1.10;;
7703;SDS011;3894;49.700;10.770;2023-09-30T02:45:58;8.48;;;1.67;;
7703;SDS011;3894;49.700;10.770;2023-09-30T02:48:24;5.43;;;0.95;;
7703;SDS011;3894;49.700;10.770;2023-09-30T02:50:49;8.10;;;0.90;;
7703;SDS011;3894;49.700;10.770;2023-09-30T02:53:15;6.65;;;1.05;;
7703;SDS011;3894;49.700;10.770;2023-09-30T02:55:41;6.32;;;0.85;;
7703;SDS011;3894;49.700;10.770;2023-09-30T02:58:07;7.50;;;1.58;;
7703;SDS011;3894;49.700;10.770;2023-09-30T03:00:36;5.20;;;1.10;;
7703;SDS011;3894;49.700;10.770;2023-09-30T03:03:03;6.25;;;0.77;;
7703;SDS011;3894;49.700;10.770;2023-09-30T03:05:28;4.97;;;1.20;;
7703;SDS011;3894;49.700;10.770;2023-09-30T03:07:58;7.82;;;1.02;;
7703;SDS011;3894;49.700;10.770;2023-09-30T03:10:24;5.18;;;0.95;;
7703;SDS011;3894;49.700;10.770;2023-09-30T03:12:52;7.32;;;1.63;;
7703;SDS011;3894;49.700;10.770;2023-09-30T03:15:18;6.05;;;1.27;;
7703;SDS011;3894;49.700;10.770;2023-09-30T03:17:44;5.70;;;0.95;;
7703;SDS011;3894;49.700;10.770;2023-09-30T03:20:10;3.50;;;0.68;;
7703;SDS011;3894;49.700;10.770;2023-09-30T03:22:40;4.70;;;0.98;;
7703;SDS011;3894;49.700;10.770;2023-09-30T03:25:07;5.95;;;0.93;;
7703;SDS011;3894;49.700;10.770;2023-09-30T03:27:34;4.30;;;0.60;;
7703;SDS011;3894;49.700;10.770;2023-09-30T03:30:01;6.20;;;1.00;;
7703;SDS011;3894;49.700;10.770;2023-09-30T03:32:31;4.38;;;0.85;;
7703;SDS011;3894;49.700;10.770;2023-09-30T03:34:58;6.38;;;0.90;;
7703;SDS011;3894;49.700;10.770;2023-09-30T03:37:25;4.80;;;0.68;;
7703;SDS011;3894;49.700;10.770;2023-09-30T03:39:55;5.05;;;1.30;;
7703;SDS011;3894;49.700;10.770;2023-09-30T03:42:21;5.07;;;1.25;;
7703;SDS011;3894;49.700;10.770;2023-09-30T03:44:46;4.93;;;1.13;;
7703;SDS011;3894;49.700;10.770;2023-09-30T03:47:13;5.03;;;1.10;;
7703;SDS011;3894;49.700;10.770;2023-09-30T03:49:40;4.97;;;1.50;;
7703;SDS011;3894;49.700;10.770;2023-09-30T03:52:07;7.70;;;0.95;;
7703;SDS011;3894;49.700;10.770;2023-09-30T03:54:33;5.40;;;0.82;;
7703;SDS011;3894;49.700;10.770;2023-09-30T03:56:59;4.65;;;1.20;;
7703;SDS011;3894;49.700;10.770;2023-09-30T03:59:25;5.22;;;0.80;;
7703;SDS011;3894;49.700;10.770;2023-09-30T04:01:51;3.92;;;0.77;;
7703;SDS011;3894;49.700;10.770;2023-09-30T04:04:18;7.68;;;1.20;;
7703;SDS011;3894;49.700;10.770;2023-09-30T04:06:46;5.95;;;0.80;;
7703;SDS011;3894;49.700;10.770;2023-09-30T04:09:11;3.92;;;0.73;;
7703;SDS011;3894;49.700;10.770;2023-09-30T04:11:38;4.22;;;0.80;;
7703;SDS011;3894;49.700;10.770;2023-09-30T04:14:06;7.28;;;1.30;;
7703;SDS011;3894;49.700;10.770;2023-09-30T04:16:32;4.85;;;1.08;;
7703;SDS011;3894;49.700;10.770;2023-09-30T04:18:59;4.88;;;1.02;;
7703;SDS011;3894;49.700;10.770;2023-09-30T04:21:25;4.25;;;0.95;;
7703;SDS011;3894;49.700;10.770;2023-09-30T04:23:53;4.18;;;0.70;;
7703;SDS011;3894;49.700;10.770;2023-09-30T04:26:18;4.55;;;0.75;;
7703;SDS011;3894;49.700;10.770;2023-09-30T04:28:44;4.07;;;0.90;;
7703;SDS011;3894;49.700;10.770;2023-09-30T04:31:10;6.50;;;1.00;;
7703;SDS011;3894;49.700;10.770;2023-09-30T04:33:37;4.97;;;1.10;;
7703;SDS011;3894;49.700;10.770;2023-09-30T04:36:04;8.95;;;1.13;;
7703;SDS011;3894;49.700;10.770;2023-09-30T04:38:33;4.40;;;0.80;;
7703;SDS011;3894;49.700;10.770;2023-09-30T04:40:59;6.20;;;1.35;;
7703;SDS011;3894;49.700;10.770;2023-09-30T04:43:25;4.53;;;0.88;;
7703;SDS011;3894;49.700;10.770;2023-09-30T04:45:54;5.93;;;0.85;;
7703;SDS011;3894;49.700;10.770;2023-09-30T04:50:48;3.95;;;0.70;;
7703;SDS011;3894;49.700;10.770;2023-09-30T04:53:13;5.38;;;0.80;;
7703;SDS011;3894;49.700;10.770;2023-09-30T04:55:40;5.43;;;1.10;;
7703;SDS011;3894;49.700;10.770;2023-09-30T04:58:07;6.00;;;1.27;;
7703;SDS011;3894;49.700;10.770;2023-09-30T05:00:33;6.03;;;1.52;;
7703;SDS011;3894;49.700;10.770;2023-09-30T05:03:00;6.25;;;0.93;;
7703;SDS011;3894;49.700;10.770;2023-09-30T05:05:25;5.50;;;0.90;;
7703;SDS011;3894;49.700;10.770;2023-09-30T05:07:51;6.50;;;1.25;;
7703;SDS011;3894;49.700;10.770;2023-09-30T05:10:17;4.70;;;1.02;;
7703;SDS011;3894;49.700;10.770;2023-09-30T05:12:44;4.07;;;0.75;;
7703;SDS011;3894;49.700;10.770;2023-09-30T05:15:11;6.25;;;1.48;;
7703;SDS011;3894;49.700;10.770;2023-09-30T05:17:37;6.65;;;1.10;;
7703;SDS011;3894;49.700;10.770;2023-09-30T05:20:03;5.63;;;0.93;;
7703;SDS011;3894;49.700;10.770;2023-09-30T05:22:32;5.82;;;1.70;;
7703;SDS011;3894;49.700;10.770;2023-09-30T05:24:58;6.00;;;1.55;;
7703;SDS011;3894;49.700;10.770;2023-09-30T05:27:24;5.30;;;1.08;;
7703;SDS011;3894;49.700;10.770;2023-09-30T05:29:50;5.63;;;1.15;;
7703;SDS011;3894;49.700;10.770;2023-09-30T05:32:15;4.25;;;0.82;;
7703;SDS011;3894;49.700;10.770;2023-09-30T05:34:41;6.95;;;1.23;;
7703;SDS011;3894;49.700;10.770;2023-09-30T05:37:06;4.68;;;1.35;;
7703;SDS011;3894;49.700;10.770;2023-09-30T05:39:32;4.80;;;0.93;;
7703;SDS011;3894;49.700;10.770;2023-09-30T05:41:58;6.15;;;0.93;;
7703;SDS011;3894;49.700;10.770;2023-09-30T05:44:23;4.93;;;0.95;;
7703;SDS011;3894;49.700;10.770;2023-09-30T05:46:51;5.28;;;1.00;;
7703;SDS011;3894;49.700;10.770;2023-09-30T05:49:16;3.42;;;0.73;;
7703;SDS011;3894;49.700;10.770;2023-09-30T05:51:44;4.55;;;0.80;;
7703;SDS011;3894;49.700;10.770;2023-09-30T05:54:10;6.97;;;1.20;;
7703;SDS011;3894;49.700;10.770;2023-09-30T05:56:38;6.40;;;0.90;;
7703;SDS011;3894;49.700;10.770;2023-09-30T05:59:04;6.30;;;0.75;;
7703;SDS011;3894;49.700;10.770;2023-09-30T06:01:31;4.50;;;0.75;;
7703;SDS011;3894;49.700;10.770;2023-09-30T06:04:01;5.45;;;1.30;;
7703;SDS011;3894;49.700;10.770;2023-09-30T06:06:26;5.60;;;1.23;;
7703;SDS011;3894;49.700;10.770;2023-09-30T06:08:55;3.75;;;0.63;;
7703;SDS011;3894;49.700;10.770;2023-09-30T06:11:25;4.40;;;0.82;;
7703;SDS011;3894;49.700;10.770;2023-09-30T06:13:56;5.82;;;1.13;;
7703;SDS011;3894;49.700;10.770;2023-09-30T06:16:31;5.78;;;1.00;;
7703;SDS011;3894;49.700;10.770;2023-09-30T06:18:57;5.93;;;1.30;;
7703;SDS011;3894;49.700;10.770;2023-09-30T06:21:24;6.28;;;1.48;;
7703;SDS011;3894;49.700;10.770;2023-09-30T06:23:53;5.43;;;1.13;;
7703;SDS011;3894;49.700;10.770;2023-09-30T06:26:19;4.25;;;1.05;;
7703;SDS011;3894;49.700;10.770;2023-09-30T06:28:46;3.72;;;1.15;;
7703;SDS011;3894;49.700;10.770;2023-09-30T06:31:12;6.88;;;1.33;;
7703;SDS011;3894;49.700;10.770;2023-09-30T06:33:39;6.45;;;1.25;;
7703;SDS011;3894;49.700;10.770;2023-09-30T06:36:14;3.60;;;0.80;;
7703;SDS011;3894;49.700;10.770;2023-09-30T06:38:40;6.25;;;0.90;;
7703;SDS011;3894;49.700;10.770;2023-09-30T06:41:14;5.25;;;1.00;;
7703;SDS011;3894;49.700;10.770;2023-09-30T06:43:41;6.28;;;1.00;;
7703;SDS011;3894;49.700;10.770;2023-09-30T06:46:06;5.85;;;0.88;;
7703;SDS011;3894;49.700;10.770;2023-09-30T06:48:36;3.92;;;0.80;;
7703;SDS011;3894;49.700;10.770;2023-09-30T06:51:02;4.82;;;1.00;;
7703;SDS011;3894;49.700;10.770;2023-09-30T06:53:28;5.07;;;1.30;;
7703;SDS011;3894;49.700;10.770;2023-09-30T06:55:53;4.70;;;1.02;;
7703;SDS011;3894;49.700;10.770;2023-09-30T06:58:19;3.60;;;0.60;;
7703;SDS011;3894;49.700;10.770;2023-09-30T07:00:48;4.32;;;0.98;;
7703;SDS011;3894;49.700;10.770;2023-09-30T07:03:17;4.70;;;0.90;;
7703;SDS011;3894;49.700;10.770;2023-09-30T07:05:44;5.57;;;1.00;;
7703;SDS011;3894;49.700;10.770;2023-09-30T07:08:10;3.47;;;0.75;;
7703;SDS011;3894;49.700;10.770;2023-09-30T07:10:35;2.78;;;0.50;;
7703;SDS011;3894;49.700;10.770;2023-09-30T07:13:02;4.75;;;0.75;;
7703;SDS011;3894;49.700;10.770;2023-09-30T07:15:28;5.07;;;0.95;;
7703;SDS011;3894;49.700;10.770;2023-09-30T07:17:54;6.20;;;1.45;;
7703;SDS011;3894;49.700;10.770;2023-09-30T07:20:19;7.95;;;1.17;;
7703;SDS011;3894;49.700;10.770;2023-09-30T07:25:13;4.15;;;0.55;;
7703;SDS011;3894;49.700;10.770;2023-09-30T07:27:45;5.93;;;0.88;;
7703;SDS011;3894;49.700;10.770;2023-09-30T07:30:11;5.70;;;0.55;;
7703;SDS011;3894;49.700;10.770;2023-09-30T07:32:43;6.25;;;0.80;;
7703;SDS011;3894;49.700;10.770;2023-09-30T07:35:09;5.03;;;0.90;;
7703;SDS011;3894;49.700;10.770;2023-09-30T07:37:35;5.03;;;0.70;;
7703;SDS011;3894;49.700;10.770;2023-09-30T07:40:01;4.90;;;0.82;;
7703;SDS011;3894;49.700;10.770;2023-09-30T07:42:26;4.60;;;0.77;;
7703;SDS011;3894;49.700;10.770;2023-09-30T07:44:52;5.20;;;1.00;;
7703;SDS011;3894;49.700;10.770;2023-09-30T07:47:19;6.38;;;0.80;;
7703;SDS011;3894;49.700;10.770;2023-09-30T07:49:44;5.82;;;0.90;;
7703;SDS011;3894;49.700;10.770;2023-09-30T07:52:10;4.32;;;0.90;;
7703;SDS011;3894;49.700;10.770;2023-09-30T07:54:36;6.30;;;0.90;;
7703;SDS011;3894;49.700;10.770;2023-09-30T07:57:01;5.35;;;0.90;;
7703;SDS011;3894;49.700;10.770;2023-09-30T07:59:27;4.45;;;1.00;;
7703;SDS011;3894;49.700;10.770;2023-09-30T08:01:52;7.10;;;0.82;;
7703;SDS011;3894;49.700;10.770;2023-09-30T08:04:18;6.47;;;1.02;;
7703;SDS011;3894;49.700;10.770;2023-09-30T08:06:44;6.85;;;1.00;;
7703;SDS011;3894;49.700;10.770;2023-09-30T08:09:12;5.85;;;1.02;;
7703;SDS011;3894;49.700;10.770;2023-09-30T08:11:38;4.82;;;0.80;;
7703;SDS011;3894;49.700;10.770;2023-09-30T08:14:04;6.07;;;2.08;;
7703;SDS011;3894;49.700;10.770;2023-09-30T08:16:35;4.20;;;0.77;;
7703;SDS011;3894;49.700;10.770;2023-09-30T08:19:02;6.78;;;1.08;;
7703;SDS011;3894;49.700;10.770;2023-09-30T08:21:28;4.47;;;0.85;;
7703;SDS011;3894;49.700;10.770;2023-09-30T08:23:54;9.20;;;1.15;;
7703;SDS011;3894;49.700;10.770;2023-09-30T08:26:19;6.50;;;0.80;;
7703;SDS011;3894;49.700;10.770;2023-09-30T08:28:45;9.35;;;1.05;;
7703;SDS011;3894;49.700;10.770;2023-09-30T08:31:11;6.20;;;0.93;;
7703;SDS011;3894;49.700;10.770;2023-09-30T08:33:36;4.82;;;0.82;;
7703;SDS011;3894;49.700;10.770;2023-09-30T08:36:05;4.65;;;0.73;;
7703;SDS011;3894;49.700;10.770;2023-09-30T08:38:36;5.85;;;0.85;;
7703;SDS011;3894;49.700;10.770;2023-09-30T08:41:02;7.50;;;1.00;;
7703;SDS011;3894;49.700;10.770;2023-09-30T08:43:28;6.70;;;0.90;;
7703;SDS011;3894;49.700;10.770;2023-09-30T08:45:56;4.15;;;0.90;;
7703;SDS011;3894;49.700;10.770;2023-09-30T08:48:23;4.40;;;1.15;;
7703;SDS011;3894;49.700;10.770;2023-09-30T08:50:49;4.13;;;0.88;;
7703;SDS011;3894;49.700;10.770;2023-09-30T08:53:16;5.38;;;0.88;;
7703;SDS011;3894;49.700;10.770;2023-09-30T08:55:41;5.68;;;1.05;;
7703;SDS011;3894;49.700;10.770;2023-09-30T08:58:09;4.10;;;0.68;;
7703;SDS011;3894;49.700;10.770;2023-09-30T09:03:03;5.50;;;0.93;;
7703;SDS011;3894;49.700;10.770;2023-09-30T09:05:30;5.25;;;0.80;;
7703;SDS011;3894;49.700;10.770;2023-09-30T09:07:56;5.88;;;1.10;;
7703;SDS011;3894;49.700;10.770;2023-09-30T09:10:21;4.45;;;1.00;;
7703;SDS011;3894;49.700;10.770;2023-09-30T09:12:54;6.63;;;1.02;;
7703;SDS011;3894;49.700;10.770;2023-09-30T09:15:27;4.35;;;0.95;;
7703;SDS011;3894;49.700;10.770;2023-09-30T09:17:54;5.30;;;1.10;;
7703;SDS011;3894;49.700;10.770;2023-09-30T09:20:26;7.50;;;1.00;;
7703;SDS011;3894;49.700;10.770;2023-09-30T09:22:52;6.90;;;0.93;;
7703;SDS011;3894;49.700;10.770;2023-09-30T09:25:22;4.70;;;0.85;;
7703;SDS011;3894;49.700;10.770;2023-09-30T09:27:48;5.15;;;1.02;;
7703;SDS011;3894;49.700;10.770;2023-09-30T09:33:02;5.95;;;1.30;;
7703;SDS011;3894;49.700;10.770;2023-09-30T09:35:30;4.93;;;1.08;;
7703;SDS011;3894;49.700;10.770;2023-09-30T09:38:07;4.50;;;0.60;;
7703;SDS011;3894;49.700;10.770;2023-09-30T09:43:00;6.15;;;0.75;;
7703;SDS011;3894;49.700;10.770;2023-09-30T09:45:30;5.63;;;0.90;;
7703;SDS011;3894;49.700;10.770;2023-09-30T09:48:02;6.65;;;1.55;;
7703;SDS011;3894;49.700;10.770;2023-09-30T09:50:29;4.43;;;0.77;;
7703;SDS011;3894;49.700;10.770;2023-09-30T09:52:56;4.78;;;0.80;;
7703;SDS011;3894;49.700;10.770;2023-09-30T09:55:25;5.13;;;0.88;;
7703;SDS011;3894;49.700;10.770;2023-09-30T09:57:52;5.82;;;1.42;;
7703;SDS011;3894;49.700;10.770;2023-09-30T10:00:20;4.22;;;0.90;;
7703;SDS011;3894;49.700;10.770;2023-09-30T10:02:48;5.97;;;0.68;;
7703;SDS011;3894;49.700;10.770;2023-09-30T10:05:15;4.90;;;0.75;;
7703;SDS011;3894;49.700;10.770;2023-09-30T10:07:47;4.38;;;0.70;;
7703;SDS011;3894;49.700;10.770;2023-09-30T10:10:25;6.05;;;0.80;;
7703;SDS011;3894;49.700;10.770;2023-09-30T10:12:51;5.22;;;0.90;;
7703;SDS011;3894;49.700;10.770;2023-09-30T10:20:35;6.03;;;0.82;;
7703;SDS011;3894;49.700;10.770;2023-09-30T10:28:45;5.88;;;1.00;;
7703;SDS011;3894;49.700;10.770;2023-09-30T10:31:16;4.85;;;0.70;;
7703;SDS011;3894;49.700;10.770;2023-09-30T10:36:28;4.97;;;1.30;;
7703;SDS011;3894;49.700;10.770;2023-09-30T10:38:54;6.25;;;1.20;;
7703;SDS011;3894;49.700;10.770;2023-09-30T10:46:50;6.07;;;0.85;;
7703;SDS011;3894;49.700;10.770;2023-09-30T10:51:50;6.10;;;0.77;;
7703;SDS011;3894;49.700;10.770;2023-09-30T10:54:30;5.78;;;1.05;;
7703;SDS011;3894;49.700;10.770;2023-09-30T10:56:57;5.35;;;1.13;;
7703;SDS011;3894;49.700;10.770;2023-09-30T10:59:27;5.45;;;1.10;;
7703;SDS011;3894;49.700;10.770;2023-09-30T11:01:55;6.07;;;1.40;;
7703;SDS011;3894;49.700;10.770;2023-09-30T11:04:21;5.43;;;1.20;;
7703;SDS011;3894;49.700;10.770;2023-09-30T11:06:47;4.85;;;1.13;;
7703;SDS011;3894;49.700;10.770;2023-09-30T11:09:18;6.20;;;1.27;;
7703;SDS011;3894;49.700;10.770;2023-09-30T11:11:46;7.25;;;1.25;;
7703;SDS011;3894;49.700;10.770;2023-09-30T11:14:23;5.63;;;1.05;;
7703;SDS011;3894;49.700;10.770;2023-09-30T11:16:49;6.05;;;1.30;;
7703;SDS011;3894;49.700;10.770;2023-09-30T11:19:17;6.25;;;1.38;;
7703;SDS011;3894;49.700;10.770;2023-09-30T11:21:46;5.45;;;1.25;;
7703;SDS011;3894;49.700;10.770;2023-09-30T11:24:14;7.18;;;1.15;;
7703;SDS011;3894;49.700;10.770;2023-09-30T11:26:40;6.68;;;1.30;;
7703;SDS011;3894;49.700;10.770;2023-09-30T11:29:09;5.68;;;1.45;;
7703;SDS011;3894;49.700;10.770;2023-09-30T11:31:41;6.15;;;1.50;;
7703;SDS011;3894;49.700;10.770;2023-09-30T11:34:08;5.47;;;1.40;;
7703;SDS011;3894;49.700;10.770;2023-09-30T11:36:37;7.05;;;1.95;;
7703;SDS011;3894;49.700;10.770;2023-09-30T11:39:08;7.13;;;2.95;;
7703;SDS011;3894;49.700;10.770;2023-09-30T11:44:09;6.07;;;2.15;;
7703;SDS011;3894;49.700;10.770;2023-09-30T11:46:55;6.55;;;2.30;;
7703;SDS011;3894;49.700;10.770;2023-09-30T11:49:26;7.63;;;2.10;;
7703;SDS011;3894;49.700;10.770;2023-09-30T11:51:52;8.40;;;2.22;;
7703;SDS011;3894;49.700;10.770;2023-09-30T11:54:18;8.93;;;3.60;;
7703;SDS011;3894;49.700;10.770;2023-09-30T11:56:44;7.38;;;2.17;;
7703;SDS011;3894;49.700;10.770;2023-09-30T11:59:12;6.53;;;2.10;;
7703;SDS011;3894;49.700;10.770;2023-09-30T12:01:38;6.97;;;2.15;;
7703;SDS011;3894;49.700;10.770;2023-09-30T12:04:03;6.78;;;1.85;;
7703;SDS011;3894;49.700;10.770;2023-09-30T12:06:29;6.40;;;1.50;;
7703;SDS011;3894;49.700;10.770;2023-09-30T12:08:55;7.78;;;2.35;;
7703;SDS011;3894;49.700;10.770;2023-09-30T12:11:20;7.65;;;2.20;;
7703;SDS011;3894;49.700;10.770;2023-09-30T12:13:49;7.50;;;2.00;;
7703;SDS011;3894;49.700;10.770;2023-09-30T12:16:15;7.63;;;2.53;;
7703;SDS011;3894;49.700;10.770;2023-09-30T12:18:41;7.60;;;1.90;;
7703;SDS011;3894;49.700;10.770;2023-09-30T12:21:09;9.00;;;1.92;;
7703;SDS011;3894;49.700;10.770;2023-09-30T12:23:35;6.22;;;1.70;;
7703;SDS011;3894;49.700;10.770;2023-09-30T12:26:01;8.73;;;1.85;;
7703;SDS011;3894;49.700;10.770;2023-09-30T12:28:30;6.93;;;2.00;;
7703;SDS011;3894;49.700;10.770;2023-09-30T12:30:59;5.93;;;1.83;;
7703;SDS011;3894;49.700;10.770;2023-09-30T12:33:29;7.68;;;2.33;;
7703;SDS011;3894;49.700;10.770;2023-09-30T12:35:56;7.47;;;1.88;;
7703;SDS011;3894;49.700;10.770;2023-09-30T12:38:23;7.47;;;1.90;;
7703;SDS011;3894;49.700;10.770;2023-09-30T12:40:53;6.57;;;1.58;;
7703;SDS011;3894;49.700;10.770;2023-09-30T12:43:21;5.60;;;1.48;;
7703;SDS011;3894;49.700;10.770;2023-09-30T12:45:47;8.48;;;2.40;;
7703;SDS011;3894;49.700;10.770;2023-09-30T12:48:14;6.78;;;1.75;;
7703;SDS011;3894;49.700;10.770;2023-09-30T12:50:40;9.13;;;1.85;;
7703;SDS011;3894;49.700;10.770;2023-09-30T12:53:06;6.38;;;2.03;;
7703;SDS011;3894;49.700;10.770;2023-09-30T12:55:32;8.52;;;1.90;;
7703;SDS011;3894;49.700;10.770;2023-09-30T12:57:58;5.75;;;1.55;;
7703;SDS011;3894;49.700;10.770;2023-09-30T13:00:24;6.55;;;1.88;;
7703;SDS011;3894;49.700;10.770;2023-09-30T13:02:51;6.07;;;1.35;;
7703;SDS011;3894;49.700;10.770;2023-09-30T13:05:17;7.05;;;1.80;;
7703;SDS011;3894;49.700;10.770;2023-09-30T13:07:43;9.85;;;2.08;;
7703;SDS011;3894;49.700;10.770;2023-09-30T13:10:08;7.70;;;1.45;;
7703;SDS011;3894;49.700;10.770;2023-09-30T13:12:37;7.07;;;1.52;;
7703;SDS011;3894;49.700;10.770;2023-09-30T13:15:03;6.00;;;1.30;;
7703;SDS011;3894;49.700;10.770;2023-09-30T13:17:30;8.45;;;2.00;;
7703;SDS011;3894;49.700;10.770;2023-09-30T13:19:56;6.07;;;1.52;;
7703;SDS011;3894;49.700;10.770;2023-09-30T13:22:22;7.35;;;1.83;;
7703;SDS011;3894;49.700;10.770;2023-09-30T13:24:47;10.52;;;1.60;;
7703;SDS011;3894;49.700;10.770;2023-09-30T13:27:13;7.35;;;2.17;;
7703;SDS011;3894;49.700;10.770;2023-09-30T13:29:41;7.03;;;1.67;;
7703;SDS011;3894;49.700;10.770;2023-09-30T13:32:09;7.28;;;1.73;;
7703;SDS011;3894;49.700;10.770;2023-09-30T13:34:35;6.55;;;1.73;;
7703;SDS011;3894;49.700;10.770;2023-09-30T13:37:00;7.40;;;1.60;;
7703;SDS011;3894;49.700;10.770;2023-09-30T13:39:26;6.38;;;1.92;;
7703;SDS011;3894;49.700;10.770;2023-09-30T13:41:52;6.75;;;1.95;;
7703;SDS011;3894;49.700;10.770;2023-09-30T13:44:18;6.35;;;1.77;;
7703;SDS011;3894;49.700;10.770;2023-09-30T13:46:45;6.20;;;1.60;;
7703;SDS011;3894;49.700;10.770;2023-09-30T13:49:11;6.93;;;2.30;;
7703;SDS011;3894;49.700;10.770;2023-09-30T13:51:37;8.75;;;2.50;;
7703;SDS011;3894;49.700;10.770;2023-09-30T13:54:03;6.82;;;1.70;;
7703;SDS011;3894;49.700;10.770;2023-09-30T13:56:32;7.15;;;2.33;;
7703;SDS011;3894;49.700;10.770;2023-09-30T13:58:58;7.22;;;1.60;;
7703;SDS011;3894;49.700;10.770;2023-09-30T14:01:24;6.30;;;1.92;;
7703;SDS011;3894;49.700;10.770;2023-09-30T14:03:50;6.10;;;2.00;;
7703;SDS011;3894;49.700;10.770;2023-09-30T14:06:20;7.00;;;1.75;;
7703;SDS011;3894;49.700;10.770;2023-09-30T14:08:46;6.78;;;1.40;;
7703;SDS011;3894;49.700;10.770;2023-09-30T14:11:11;7.00;;;1.90;;
7703;SDS011;3894;49.700;10.770;2023-09-30T14:13:37;8.68;;;2.28;;
7703;SDS011;3894;49.700;10.770;2023-09-30T14:16:04;8.70;;;1.92;;
7703;SDS011;3894;49.700;10.770;2023-09-30T14:18:30;7.07;;;1.90;;
7703;SDS011;3894;49.700;10.770;2023-09-30T14:20:55;7.50;;;1.88;;
7703;SDS011;3894;49.700;10.770;2023-09-30T14:23:21;6.78;;;1.45;;
7703;SDS011;3894;49.700;10.770;2023-09-30T14:25:48;8.32;;;1.90;;
7703;SDS011;3894;49.700;10.770;2023-09-30T14:28:14;7.25;;;1.85;;
7703;SDS011;3894;49.700;10.770;2023-09-30T14:30:39;5.45;;;1.80;;
7703;SDS011;3894;49.700;10.770;2023-09-30T14:33:05;7.68;;;1.60;;
7703;SDS011;3894;49.700;10.770;2023-09-30T14:35:32;7.20;;;1.80;;
7703;SDS011;3894;49.700;10.770;2023-09-30T14:37:59;6.80;;;1.80;;
7703;SDS011;3894;49.700;10.770;2023-09-30T14:40:25;6.40;;;1.52;;
7703;SDS011;3894;49.700;10.770;2023-09-30T14:42:51;7.20;;;1.60;;
7703;SDS011;3894;49.700;10.770;2023-09-30T14:45:17;8.00;;;1.92;;
7703;SDS011;3894;49.700;10.770;2023-09-30T14:47:43;7.43;;;2.10;;
7703;SDS011;3894;49.700;10.770;2023-09-30T14:50:09;7.80;;;2.30;;
7703;SDS011;3894;49.700;10.770;2023-09-30T14:52:34;5.60;;;2.38;;
7703;SDS011;3894;49.700;10.770;2023-09-30T14:55:00;8.52;;;1.70;;
7703;SDS011;3894;49.700;10.770;2023-09-30T14:57:25;7.07;;;1.67;;
7703;SDS011;3894;49.700;10.770;2023-09-30T14:59:53;7.22;;;2.13;;
7703;SDS011;3894;49.700;10.770;2023-09-30T15:02:18;8.57;;;2.20;;
7703;SDS011;3894;49.700;10.770;2023-09-30T15:04:44;7.53;;;2.30;;
7703;SDS011;3894;49.700;10.770;2023-09-30T15:07:09;6.28;;;2.08;;
7703;SDS011;3894;49.700;10.770;2023-09-30T15:09:37;8.98;;;2.08;;
7703;SDS011;3894;49.700;10.770;2023-09-30T15:12:03;8.35;;;2.30;;
7703;SDS011;3894;49.700;10.770;2023-09-30T15:14:28;8.38;;;2.40;;
7703;SDS011;3894;49.700;10.770;2023-09-30T15:16:54;7.90;;;2.30;;
7703;SDS011;3894;49.700;10.770;2023-09-30T15:19:20;7.97;;;2.38;;
7703;SDS011;3894;49.700;10.770;2023-09-30T15:21:45;8.43;;;2.42;;
7703;SDS011;3894;49.700;10.770;2023-09-30T15:24:11;11.50;;;4.40;;
7703;SDS011;3894;49.700;10.770;2023-09-30T15:26:36;8.40;;;3.38;;
7703;SDS011;3894;49.700;10.770;2023-09-30T15:29:02;10.07;;;2.25;;
7703;SDS011;3894;49.700;10.770;2023-09-30T15:31:28;8.63;;;2.65;;
7703;SDS011;3894;49.700;10.770;2023-09-30T15:33:55;7.65;;;2.63;;
7703;SDS011;3894;49.700;10.770;2023-09-30T15:36:24;8.10;;;2.10;;